createdAt,value
2023-03-23T15:59:09.804Z,16.75
2023-03-23T16:01:39.531Z,8.85
2023-03-23T16:04:10.641Z,19.10
2023-03-23T16:06:38.588Z,10.45
2023-03-23T16:09:06.888Z,11.48
2023-03-23T16:14:02.841Z,8.13
2023-03-23T16:16:34.409Z,9.32
2023-03-23T16:19:01.549Z,15.95
2023-03-23T16:21:28.949Z,6.30
2023-03-23T16:23:56.820Z,6.40
2023-03-23T16:26:25.338Z,10.10
2023-03-23T16:29:02.717Z,17.35
2023-03-23T16:31:37.428Z,13.80
2023-03-23T16:34:04.674Z,13.13
2023-03-23T16:36:32.121Z,9.27
2023-03-23T16:38:59.336Z,11.88
2023-03-23T16:41:26.497Z,7.13
2023-03-23T16:43:55.288Z,14.02
2023-03-23T16:46:22.750Z,8.13
2023-03-23T16:48:49.679Z,18.90
2023-03-23T16:51:16.935Z,13.52
2023-03-23T16:53:44.422Z,17.27
2023-03-23T16:56:11.735Z,43.88
2023-03-23T16:58:38.886Z,21.52
2023-03-23T17:01:08.071Z,19.48
2023-03-23T17:03:35.902Z,16.30
2023-03-23T17:06:04.548Z,20.67
2023-03-23T17:08:31.855Z,11.30
2023-03-23T17:11:00.237Z,14.70
2023-03-23T17:13:28.028Z,14.07
2023-03-23T17:15:57.245Z,18.02
2023-03-23T17:18:26.012Z,18.83
2023-03-23T17:20:54.441Z,17.65
2023-03-23T17:23:21.619Z,23.63
2023-03-23T17:25:48.963Z,20.50
2023-03-23T17:28:18.871Z,40.47
2023-03-23T17:30:47.905Z,21.58
2023-03-23T17:33:15.399Z,19.38
2023-03-23T17:35:46.236Z,24.23
2023-03-23T17:38:13.942Z,24.20
2023-03-23T17:40:41.205Z,31.83
2023-03-23T17:43:08.364Z,24.33
2023-03-23T17:45:36.520Z,38.13
2023-03-23T17:48:07.714Z,39.33
2023-03-23T17:50:36.186Z,48.55
2023-03-23T17:53:05.884Z,37.45
2023-03-23T17:58:00.725Z,35.70
2023-03-23T18:00:28.208Z,39.65
2023-03-23T18:02:56.520Z,29.05
2023-03-23T18:07:51.804Z,31.40
2023-03-23T18:10:20.520Z,33.00
2023-03-23T18:12:50.491Z,30.58
2023-03-23T18:15:18.367Z,32.47
2023-03-23T18:17:48.172Z,34.97
2023-03-23T18:20:15.816Z,31.80
2023-03-23T18:22:43.614Z,26.13
2023-03-23T18:25:10.997Z,34.72
2023-03-23T18:27:39.367Z,50.33
2023-03-23T18:30:11.744Z,30.65
2023-03-23T18:32:39.598Z,23.00
2023-03-23T18:35:10.023Z,24.25
2023-03-23T18:37:39.311Z,32.00
2023-03-23T18:40:10.934Z,33.30
2023-03-23T18:42:41.145Z,32.13
2023-03-23T18:45:09.664Z,29.13
2023-03-23T18:47:38.587Z,35.25
2023-03-23T18:50:08.276Z,33.80
2023-03-23T18:52:36.040Z,33.40
2023-03-23T18:55:04.019Z,34.50
2023-03-23T18:57:31.040Z,35.17
2023-03-23T18:59:59.962Z,26.05
2023-03-23T19:02:27.366Z,27.80
2023-03-23T19:04:57.075Z,37.83
2023-03-23T19:07:24.200Z,30.67
2023-03-23T19:09:51.644Z,33.35
2023-03-23T19:12:18.755Z,32.45
2023-03-23T19:14:46.106Z,25.73
2023-03-23T19:17:14.464Z,28.50
2023-03-23T19:19:43.239Z,36.80
2023-03-23T19:24:38.401Z,25.52
2023-03-23T19:27:06.009Z,31.20
2023-03-23T19:29:34.856Z,38.83
2023-03-23T19:32:02.123Z,50.35
2023-03-23T19:34:31.926Z,40.17
2023-03-23T19:37:05.269Z,32.67
2023-03-23T19:39:34.153Z,31.10
2023-03-23T19:42:01.806Z,29.80
2023-03-23T19:44:29.549Z,32.85
2023-03-23T19:46:56.784Z,26.40
2023-03-23T19:49:24.982Z,31.15
2023-03-23T19:52:07.881Z,23.00
2023-03-23T19:54:38.834Z,37.88
2023-03-23T19:57:06.763Z,22.70
2023-03-23T19:59:34.814Z,27.02
2023-03-23T20:02:02.271Z,19.92
2023-03-23T20:04:30.107Z,22.10
2023-03-23T20:06:59.140Z,38.67
2023-03-23T20:09:26.661Z,80.45
2023-03-23T20:11:53.804Z,46.80
2023-03-23T20:14:21.420Z,23.55
2023-03-23T20:16:48.561Z,21.38
2023-03-23T20:19:16.506Z,20.52
2023-03-23T20:21:43.712Z,42.47
2023-03-23T20:24:12.637Z,25.98
2023-03-23T20:26:41.730Z,15.13
2023-03-23T20:29:09.982Z,20.58
2023-03-23T20:31:39.875Z,23.30
2023-03-23T20:34:09.720Z,21.65
2023-03-23T20:36:40.474Z,29.20
2023-03-23T20:39:10.729Z,26.08
2023-03-23T20:41:40.464Z,22.48
2023-03-23T20:44:13.692Z,26.27
2023-03-23T20:46:41.488Z,26.05
2023-03-23T20:49:10.157Z,26.90
2023-03-23T20:51:37.459Z,26.63
2023-03-23T20:54:06.076Z,24.15
2023-03-23T20:56:33.448Z,27.38
2023-03-23T20:59:02.745Z,29.23
2023-03-23T21:03:57.896Z,38.58
2023-03-23T21:06:28.492Z,29.02
2023-03-23T21:08:57.203Z,38.38
2023-03-23T21:11:26.015Z,30.17
2023-03-23T21:13:54.115Z,26.75
2023-03-23T21:16:23.839Z,33.30
2023-03-23T21:18:51.438Z,34.40
2023-03-23T21:21:18.704Z,36.75
2023-03-23T21:23:47.267Z,30.90
2023-03-23T21:26:17.114Z,35.05
2023-03-23T21:28:45.588Z,36.03
2023-03-23T21:31:15.003Z,44.95
2023-03-23T21:33:44.012Z,35.50
2023-03-23T21:36:11.589Z,42.17
2023-03-23T21:38:39.834Z,40.90
2023-03-23T21:41:09.093Z,46.20
2023-03-23T21:43:36.884Z,41.20
2023-03-23T21:46:05.511Z,43.80
2023-03-23T21:48:35.665Z,41.70
2023-03-23T21:51:07.234Z,34.50
2023-03-23T21:53:36.801Z,39.78
2023-03-23T21:56:06.247Z,32.70
2023-03-23T21:58:33.890Z,43.15
2023-03-23T22:01:02.222Z,35.42
2023-03-23T22:06:09.309Z,36.97
2023-03-23T22:08:38.486Z,35.33
2023-03-23T22:11:08.118Z,45.22
2023-03-23T22:13:37.753Z,40.88
2023-03-23T22:16:20.108Z,43.20
2023-03-23T22:18:48.651Z,44.22
2023-03-23T22:21:17.957Z,50.50
2023-03-23T22:23:46.128Z,33.22
2023-03-23T22:26:14.727Z,29.45
2023-03-23T22:28:43.420Z,29.67
2023-03-23T22:31:13.590Z,29.05
2023-03-23T22:33:41.205Z,25.77
2023-03-23T22:36:09.309Z,32.92
2023-03-23T22:38:40.561Z,26.27
2023-03-23T22:41:08.819Z,35.95
2023-03-23T22:43:37.367Z,28.15
2023-03-23T22:46:05.678Z,35.83
2023-03-23T22:48:33.393Z,37.97
2023-03-23T22:51:00.873Z,31.05
2023-03-23T22:53:28.231Z,34.35
2023-03-23T22:55:57.924Z,33.05
2023-03-23T22:58:27.096Z,34.08
2023-03-23T23:00:57.556Z,37.22
2023-03-23T23:03:26.859Z,32.97
2023-03-23T23:08:23.425Z,41.03
2023-03-23T23:10:52.639Z,32.65
2023-03-23T23:13:21.903Z,32.83
2023-03-23T23:18:17.814Z,31.97
2023-03-23T23:20:48.481Z,29.50
2023-03-23T23:23:16.562Z,31.77
2023-03-23T23:25:43.980Z,25.02
2023-03-23T23:28:12.259Z,25.10
2023-03-23T23:30:40.991Z,27.67
2023-03-23T23:35:37.177Z,23.20
2023-03-23T23:38:05.141Z,31.90
2023-03-23T23:40:36.779Z,29.83
2023-03-23T23:43:04.689Z,27.08
2023-03-23T23:45:32.445Z,29.83
2023-03-23T23:48:01.095Z,27.15
2023-03-23T23:50:31.466Z,27.45
2023-03-23T23:52:58.778Z,28.17
2023-03-23T23:55:27.012Z,26.52
2023-03-23T23:57:54.802Z,32.47
